Buoy 43571

sailwx.info

Track history (hours):
 
Tides and Currents Weather Stations Pressure Air Temp Water Temp Dewpoint Dewpoint Depression Visibility Wind Speed Wind Dir Waves Ship Positions

Yuehuilaiyu43571

Last reported at 2014-Jun-16 12:30 UTC. Time now 2014-Jul-31 15:33 UTC.
Position N 16°50' W 088°06'.
Warning: this ship's position is 45 days out of date.

Length 24 m.

Type: Fishing. MMSI: 412466746.

Water temperature 26.8 ° C

Date/timePositionNaut miles runAvg speedWind from/ knotsBaromVisibWave heightAir tempDewpointWater temp
2014-Jun-16 12:30N 16°50' W 088°06'0 0.1 26.8
2014-Jun-16 10:23N 16°50' W 088°06'0 0.0 27.1
2014-Jun-16 07:14N 16°50' W 088°06'0 0.0
2014-Jun-15 18:37N 16°50' W 088°06'0 0.0 28.7
2014-Jun-15 14:32N 16°50' W 088°06'0 0.0
2014-Jun-15 11:19N 16°50' W 088°06'0 0.7 27.1
2014-Jun-15 11:14N 16°50' W 088°06'0 0.0
2014-Jun-15 10:07N 16°50' W 088°06'0 0.0 27.1
2014-Jun-15 07:26N 16°50' W 088°06'0 0.0 27.7
2014-Jun-13 11:37N 16°50' W 088°06'0 0.0 28.0
2014-Jun-13 10:40N 16°50' W 088°06'0 0.0 28.2
2014-Jun-13 07:45N 16°50' W 088°06'0 0.0 28.4
2014-Jun-12 23:36N 16°50' W 088°06'0 0.0 29.6
2014-Jun-12 23:07N 16°50' W 088°06'0 0.0
2014-Jun-12 21:54N 16°50' W 088°06'0 0.0 29.3
2014-Jun-12 19:08N 16°50' W 088°06'0 0.0 28.8
2014-Jun-12 11:11N 16°50' W 088°06'0 0.0 28.2
2014-Jun-12 10:21N 16°50' W 088°06'0 0.0 28.2
2014-Jun-12 03:06N 16°50' W 088°06'0 0.0 28.6
2014-Jun-11 21:56N 16°50' W 088°06'0 0.0 29.2
2014-Jun-11 19:22N 16°50' W 088°06'1 0.1 28.4
2014-Jun-11 09:12N 16°49' W 088°06'0 0.0 28.9
2014-Jun-11 01:48N 16°49' W 088°06'1 0.4 29.6
2014-Jun-11 00:38N 16°50' W 088°06'0 0.1 29.3
2014-Jun-10 22:59N 16°50' W 088°06'0 0.0 30.1
2014-Jun-10 19:33N 16°50' W 088°06'0 0.0 30.6
2014-Jun-10 12:53N 16°50' W 088°06'   28.3
Track history (hours):
 
Tides and Currents Weather Stations Pressure Air Temp Water Temp Dewpoint Dewpoint Depression Visibility Wind Speed Wind Dir Waves Ship Positions

Yuehuilaiyu43571

Last reported at 2014-Jun-16 12:30 UTC. Time now 2014-Jul-31 15:33 UTC.
Position N 16°50' W 088°06'.
Warning: this ship's position is 45 days out of date.

Length 24 m.

Type: Fishing. MMSI: 412466746.

Water temperature 26.8 ° C

Date/timePositionNaut miles runAvg speedWind from/ knotsBaromVisibWave heightAir tempDewpointWater temp
2014-Jun-16 12:30N 16°50' W 088°06'0 0.1 26.8
2014-Jun-16 10:23N 16°50' W 088°06'0 0.0 27.1
2014-Jun-16 07:14N 16°50' W 088°06'0 0.0
2014-Jun-15 18:37N 16°50' W 088°06'0 0.0 28.7
2014-Jun-15 14:32N 16°50' W 088°06'0 0.0
2014-Jun-15 11:19N 16°50' W 088°06'0 0.7 27.1
2014-Jun-15 11:14N 16°50' W 088°06'0 0.0
2014-Jun-15 10:07N 16°50' W 088°06'0 0.0 27.1
2014-Jun-15 07:26N 16°50' W 088°06'0 0.0 27.7
2014-Jun-13 11:37N 16°50' W 088°06'0 0.0 28.0
2014-Jun-13 10:40N 16°50' W 088°06'0 0.0 28.2
2014-Jun-13 07:45N 16°50' W 088°06'0 0.0 28.4
2014-Jun-12 23:36N 16°50' W 088°06'0 0.0 29.6
2014-Jun-12 23:07N 16°50' W 088°06'0 0.0
2014-Jun-12 21:54N 16°50' W 088°06'0 0.0 29.3
2014-Jun-12 19:08N 16°50' W 088°06'0 0.0 28.8
2014-Jun-12 11:11N 16°50' W 088°06'0 0.0 28.2
2014-Jun-12 10:21N 16°50' W 088°06'0 0.0 28.2
2014-Jun-12 03:06N 16°50' W 088°06'0 0.0 28.6
2014-Jun-11 21:56N 16°50' W 088°06'0 0.0 29.2
2014-Jun-11 19:22N 16°50' W 088°06'1 0.1 28.4
2014-Jun-11 09:12N 16°49' W 088°06'0 0.0 28.9
2014-Jun-11 01:48N 16°49' W 088°06'1 0.4 29.6
2014-Jun-11 00:38N 16°50' W 088°06'0 0.1 29.3
2014-Jun-10 22:59N 16°50' W 088°06'0 0.0 30.1
2014-Jun-10 19:33N 16°50' W 088°06'0 0.0 30.6
2014-Jun-10 12:53N 16°50' W 088°06'   28.3

Dump ship's entire track history